METAR Analyzer

List View

Hello, Guest. (Login)

RJCC/CTS  -  札幌/新千歳

Obs at
2021-05-15 16:00 (UTC) (25min ago)
Temp
13
Dew-pt
10
T-Td
3
RH
82%
QNH
1014.2hPa
Est. Station Pressure
1011.2hPa
Est. SLP
1014.2hPa
Feels like
1.1
(no wind)
15.1
HI
12.5
Temp chg in 24h
+6
Feels-like chg in 24h
+0.8
HI chg in 24h
+6.3
H-Vis
>10000m
V-Vis
No data
CIG
Unknown
V/I
Unavailable
RVR
No RVR data
Wind
16kt from 160°
Gust
No gust
Precipitation
Not reported
Other Wx
Not reported
Clouds
Few (1/8) Stratus @ 1000ft AGL / Scattered (3/8) Cumulus @ 3000ft AGL / Broken clouds @ unknown height

RJCC 151600Z 16016KT 9999 FEW010 SCT030 BKN/// 13/10 Q1014 RMK 1ST010 3CU030 A2995

RJTT/HND  -  東京/羽田

Obs at
2021-05-15 16:00 (UTC) (25min ago)
Temp
19
Dew-pt
16
T-Td
3
RH
82.7%
QNH
1017.3hPa
Est. Station Pressure
1016.6hPa
Est. SLP
1017.3hPa
Feels like
11.3
(no wind)
20.2
HI
19.1
Temp chg in 24h
±0
Feels-like chg in 24h
-2.5
HI chg in 24h
-0.3
H-Vis
>10000m
V-Vis
No data
CIG
Unknown
V/I
Unavailable
RVR
No RVR data
Wind
9kt from 170°
Gust
No gust
Precipitation
Not reported
Other Wx
Not reported
Clouds
Few (1/8) Cumulus @ 3000ft AGL / Broken clouds @ unknown height

RJTT 151600Z 17009KT 9999 FEW030 BKN/// 19/16 Q1017 NOSIG RMK 1CU030 A3004

RJAA/NRT  -  東京/成田

Obs at
2021-05-15 16:00 (UTC) (25min ago)
Temp
17
Dew-pt
15
T-Td
2
RH
88%
QNH
1017.9hPa
Est. Station Pressure
1016.6hPa
Est. SLP
1017.9hPa
Feels like
12.2
(no wind)
18.6
HI
17.1
Temp chg in 24h
±0
Feels-like chg in 24h
-3
HI chg in 24h
-0.1
H-Vis
>10000m
V-Vis
No data
CIG
No dense clouds
V/I
VMC (VFR)
RVR
No RVR data
Wind
3kt from 170°
Gust
No gust
Precipitation
Not reported
Other Wx
Not reported
Clouds
Few (1/8) Cumulus @ 2000ft AGL

RJAA 151600Z 17003KT 9999 FEW020 17/15 Q1017 NOSIG RMK 1CU020 A3006

RJGG/NGO  -  名古屋/中部

Obs at
2021-05-15 16:00 (UTC) (25min ago)
Temp
20
Dew-pt
17
T-Td
3
RH
82.9%
QNH
1015.9hPa
Est. Station Pressure
1015.4hPa
Est. SLP
1015.9hPa
Feels like
11.6
(no wind)
21
HI
20.2
Temp chg in 24h
±0
Feels-like chg in 24h
-0.8
HI chg in 24h
-0.2
H-Vis
>10000m
V-Vis
No data
CIG
10000ft AGL
V/I
VMC (VFR)
RVR
No RVR data
Wind
13kt from 120°
Gust
No gust
Precipitation
Light Rain
Other Wx
Not reported
Clouds
Few (1/8) Cumulus @ 2000ft AGL / Scattered (4/8) Stratocumulus @ 4000ft AGL / Broken (5/8) Altocumulus @ 10000ft AGL

RJGG 151600Z 12013KT 9999 -RA FEW020 SCT040 BKN100 20/17 Q1015 NOSIG RMK 1CU020 4SC040 5AC100 A3000

RJOO/ITM  -  大阪/伊丹